Skip Navigation Links
NOAA logo - Click to go to the NOAA homepage
NOAA's National Weather Service
Alaska Aviation Weather Unit
  NWS logo - Click to go to the NWS homepage
Left Navbar Graphic     03 AKDT = 11 GMT

   
NOAA is celebrating 200 years of science, service, and stewardship. Visit the NOAA 200th celebration Web site to learn more.
USA.gov is the U.S. Government's official Web portal to all Federal, state and local government Web resources and services.
Facebook
NWS on Facebook

Important Change Regarding the AAWU Web Presence

 

Over the last several months, the AAWU has been working to navigate its webpages to a nationally supported server. Security, as well as other needs, have necessitated the change.  We have been given an extension for the site changeover while we diligently work at addressing feedback received. As of July 14, 2017, aawu.arh.noaa.gov will be discontinued. The new AAWU web address is weather.gov/aawu. It is now live and will run in-parallel with the old site until it is discontinued on July 14, 2017. Please continue to send any feedback or questions regarding the new webpages to nws.ar.aawu.webauthors@noaa.gov.  Thank you for your patience during this time of transition.
AAWU Home :: Display TAF Add Bookmark
SPECI PATE 230528Z AUTO 32011KT OVC031 06/03 A2982 RMK AO2 PWINO $=

METAR PATE 230556Z AUTO 32011KT OVC031 06/03 A2982 RMK AO2 SLP102
     T00560033 10078 20056 57004 PWINO $=

SPECI PATE 230629Z AUTO 32006KT BKN028 OVC034 06/03 A2981 RMK AO2 PWINO
     $=

METAR PATE 230656Z AUTO 32006KT FEW014 OVC024 06/03 A2981 RMK AO2
 SLP101 T00560033 PWINO $=

SPECI PATE 230739Z AUTO 32008KT BKN014 OVC018 05/04 A2981 RMK AO2 PWINO
     $=

METAR PATE 230756Z AUTO 31008KT FEW007 OVC012 05/04 A2981 RMK AO2 SLP100
     T00500044 PWINO $=

SPECI PATE 230833Z AUTO 32011KT SCT011 OVC015 05/04 A2981 RMK AO2 PWINO
     $=

SPECI PATE 230853Z AUTO 32009KT FEW009 OVC017 05/03 A2980 RMK AO2
     400780050 PWINO $=

METAR PATE 230856Z AUTO 32008KT FEW009 BKN017 OVC024 05/04 A2980 RMK
 AO2 SLP097 T00500039 400780050 55004 PWINO $=

METAR PATE 230956Z AUTO 32009KT OVC019 05/04 A2979 RMK AO2 SLP093
     T00500039 PWINO $=

SPECI PATE 231053Z AUTO 33007KT BKN012 OVC025 05/03 A2979 RMK AO2 PWINO
     $=

METAR PATE 231056Z AUTO 33007KT SCT012 OVC025 05/03 A2978 RMK AO2 SLP091
     T00500033 PWINO $=

SPECI PATE 231130Z AUTO 32005KT FEW009 OVC023 05/03 A2978 RMK AO2
 PWINO $=


NOAA's National Weather Service
Alaska Aviation Weather Unit
6930 Sand Lake Road
Anchorage, AK 99502-1845
Disclaimer
Credits
Glossary
Privacy Policy
About Us
Career Opportunities
Contact AAWU Internet Services Site last modified: April, 17th 2012